Tiempo atmosférico en la estación meteorológica de Castello d?Empuries, Girona (4 m.)



Fecha
DESCASC
Temp. máxima en grados centígrados (hora)
DESCASC
Temp. mínima en grados centígrados (hora)
DESCASC
Temp. media en grados centígrados
DESCASC
Racha de viento máxima en m/sg (hora)
DESCASC
Velocidad máxima media en intervalos de 10 minutos(hora)
DESCASC
Precipitaciones diarias en mm
DESCASC
Precipitaciones de 00:00 a 06:00 en mm
DESCASC
Precipitaciones de 06:00 a 12:00 en mm
DESCASC
Precipitaciones de 12:00 a 18:00 en mm
DESCASC
Precipitaciones de 18:00 a 24:00 en mm
DESCASC

Gráficas

Temp. máximas Temp. mínimas Temp. medias Precipitaciones Rachas de viento máximas Velocidades máximas media en intervalos de 10 minutos

Datos horarios

Fecha y hora oficial Temperatura (ºC) Velocidad del viento (km/h) Dirección del viento Racha (km/h) Dirección de racha Precipitación (mm) Presión (hPa) Tendencia (hPa) Humedad (%)
2020-03-28 23:00:00 9.3 3 Sudoeste 9 Oeste 0 -- -- 93
2020-03-28 22:00:00 9.9 3 Sudoeste 8 Sudoeste 0 -- -- 90
2020-03-28 21:00:00 11.3 3 Noroeste 7 Sudoeste 0 -- -- 89
2020-03-28 20:00:00 12.9 0 Calma 7 Nordeste 0 -- -- 83
2020-03-28 19:00:00 15.2 2 Este 12 Sudeste 0 -- -- 76
2020-03-28 18:00:00 15.8 5 Este 14 Este 0 -- -- 71
2020-03-28 17:00:00 16.9 8 Sudeste 19 Sudeste 0 -- -- 60
2020-03-28 16:00:00 17.6 9 Sudeste 18 Sudeste 0 -- -- 57
2020-03-28 15:00:00 16.8 9 Sudeste 19 Sudeste 0 -- -- 60
2020-03-28 14:00:00 16.4 11 Sudeste 20 Sudeste 0 -- -- 58
2020-03-28 13:00:00 16.4 12 Sudeste 20 Sudeste 0 -- -- 63
2020-03-28 12:00:00 17.5 6 Sudeste 13 Sudeste 0 -- -- 47
2020-03-28 11:00:00 16.6 6 Nordeste 13 Norte 0 -- -- 49
2020-03-28 10:00:00 13.8 2 Noroeste 8 Norte 0 -- -- 58
2020-03-28 09:00:00 11.6 2 Sudoeste 12 Sudoeste 0 -- -- 82
2020-03-28 08:00:00 9.3 2 Sur 10 Sudoeste 0 -- -- 92
2020-03-28 07:00:00 8.6 3 Sur 9 Sudoeste 0 -- -- 93
2020-03-28 06:00:00 8.7 4 Oeste 8 Oeste 0 -- -- 93
2020-03-28 05:00:00 8.9 3 Sudoeste 6 Sudoeste 0 -- -- 93
2020-03-28 04:00:00 9 4 Noroeste 6 Noroeste 0 -- -- 94
2020-03-28 03:00:00 9.2 2 Noroeste 4 Sudoeste 0 -- -- 92
2020-03-28 02:00:00 9.3 3 Oeste 8 Sudoeste 0 -- -- 90
2020-03-28 01:00:00 9.5 0 Calma 7 Noroeste 0 -- -- 89
2020-03-28 00:00:00 9.7 3 Oeste 10 Oeste 0 -- -- 88
2020-03-27 23:00:00 9.9 4 Oeste 9 Sudoeste 0 -- -- 85
2020-03-27 22:00:00 10.3 3 Sudoeste 6 Oeste 0 -- -- 86
2020-03-27 21:00:00 10.8 0 Calma 6 Este 0 -- -- 82
2020-03-27 20:00:00 11.6 0 Calma 6 Sudeste 0 -- -- 77
2020-03-27 19:00:00 12.5 2 Sudoeste 8 Oeste 0 -- -- 67
2020-03-27 18:00:00 13.5 4 Sudoeste 13 Sur 0 -- -- 57
2020-03-27 17:00:00 14.3 8 Sudeste 16 Sur 0 -- -- 58
2020-03-27 16:00:00 15 9 Sudeste 19 Sudeste 0 -- -- 47
2020-03-27 15:00:00 15.1 7 Nordeste 22 Nordeste 0 -- -- 44
2020-03-27 14:00:00 14.9 4 Nordeste 13 Norte 0 -- -- 44
2020-03-27 13:00:00 15 3 Norte 12 Noroeste 0 -- -- 41
2020-03-27 12:00:00 14.3 7 Norte 22 Noroeste 0 -- -- 45
2020-03-27 11:00:00 13.2 11 Noroeste 18 Noroeste 0 -- -- 50
2020-03-27 10:00:00 10.9 9 Noroeste 21 Norte 0 -- -- 63
2020-03-27 09:00:00 7.7 5 Sudoeste 10 Noroeste 0 -- -- 81
2020-03-27 08:00:00 5.3 6 Noroeste 10 Noroeste 0 -- -- 91
2020-03-27 07:00:00 3.8 6 Oeste 10 Oeste 0 -- -- 91
2020-03-27 06:00:00 3.7 4 Oeste 12 Oeste 0 -- -- 90
2020-03-27 05:00:00 3.6 8 Oeste 15 Oeste 0 -- -- 91
2020-03-27 04:00:00 3.5 6 Oeste 14 Oeste 0 -- -- 93
2020-03-27 03:00:00 3.3 8 Oeste 16 Oeste 0 -- -- 94
2020-03-27 02:00:00 2.7 7 Oeste 15 Oeste 0 -- -- 100
2020-03-27 01:00:00 2.4 3 Oeste 9 Oeste 0 -- -- 99
2020-03-27 00:00:00 2.9 3 Sudoeste 7 Oeste 0 -- -- 98
2020-03-26 23:00:00 3.5 4 Oeste 7 Noroeste 0 -- -- 95
2020-03-26 22:00:00 4.6 3 Oeste 12 Oeste 0 -- -- 93
2020-03-26 21:00:00 5.5 4 Noroeste 8 Oeste 0 -- -- 89
2020-03-26 20:00:00 7 3 Noroeste 8 Norte 0 -- -- 83
2020-03-26 19:00:00 9.2 5 Nordeste 9 Este 0 -- -- 73
2020-03-26 18:00:00 10.4 5 Norte 10 Nordeste 0 -- -- 70
2020-03-26 17:00:00 9.8 6 Nordeste 21 Noroeste 0 -- -- 75
2020-03-26 16:00:00 9.1 11 Noroeste 30 Noroeste 0 -- -- 82
2020-03-26 15:00:00 7.7 15 Noroeste 27 Noroeste 0 -- -- 88
2020-03-26 14:00:00 7.6 10 Noroeste 21 Noroeste 0 -- -- 89
2020-03-26 13:00:00 7.4 14 Noroeste 23 Oeste 0 -- -- 91
2020-03-26 12:00:00 7.1 14 Noroeste 24 Noroeste 0.2 -- -- 95
2020-03-26 11:00:00 8.3 7 Este 23 Este 0 -- -- 87
2020-03-26 10:00:00 8.1 12 Este 28 Este 0 -- -- 90
2020-03-26 09:00:00 7.3 12 Este 33 Este 0.8 -- -- 97
2020-03-26 08:00:00 6.9 18 Este 39 Este 4.8 -- -- 98
2020-03-26 07:00:00 7.1 17 Este 36 Este 3.4 -- -- 97
2020-03-26 06:00:00 7.6 21 Este 42 Este 0.2 -- -- 94
2020-03-26 05:00:00 7.8 14 Este 32 Este 0 -- -- 93
2020-03-26 04:00:00 6.1 5 Noroeste 8 Oeste 0 -- -- 95
2020-03-26 03:00:00 6.4 0 Calma 6 Noroeste 0 -- -- 93
2020-03-26 02:00:00 6.7 0 Calma 15 Norte 0 -- -- 89
2020-03-26 01:00:00 7.1 3 Noroeste 7 Sudoeste 0 -- -- 85
2020-03-26 00:00:00 7.6 4 Oeste 11 Sur 0 -- -- 80
2020-03-25 23:00:00 7.7 5 Sur 15 Sur 0 -- -- 79
2020-03-25 22:00:00 7.4 5 Sur 12 Sur 0 -- -- 80
2020-03-25 21:00:00 8.3 5 Sur 11 Sur 0 -- -- 73
2020-03-25 20:00:00 8.6 4 Sur 13 Sur 0 -- -- 71
2020-03-25 19:00:00 10.4 7 Sur 22 Sudeste 0 -- -- 61
2020-03-25 18:00:00 11.4 12 Sur 29 Sudeste 0 -- -- 56
2020-03-25 17:00:00 12.3 13 Sudeste 29 Sudeste 0 -- -- 59
2020-03-25 16:00:00 12.5 14 Sudeste 31 Sudeste 0 -- -- 56
2020-03-25 15:00:00 14.1 15 Sudeste 28 Sudeste 0 -- -- 55
2020-03-25 14:00:00 14 12 Este 25 Sudeste 0 -- -- 57
2020-03-25 13:00:00 12.6 12 Sudeste 28 Sudeste 0 -- -- 60
2020-03-25 12:00:00 12.4 15 Sudeste 33 Este 0 -- -- 61
2020-03-25 11:00:00 12 9 Este 18 Sudeste 0 -- -- 63
2020-03-25 10:00:00 11.1 5 Noroeste 10 Noroeste 0 -- -- 58
2020-03-25 09:00:00 7.3 4 Oeste 14 Oeste 0 -- -- 78
2020-03-25 08:00:00 6.3 7 Oeste 15 Oeste 0 -- -- 79
2020-03-25 07:00:00 5.3 6 Oeste 12 Oeste 0 -- -- 82
2020-03-25 06:00:00 6.3 5 Oeste 17 Noroeste 0 -- -- 76
2020-03-25 05:00:00 7.2 8 Noroeste 18 Oeste 0 -- -- 75
2020-03-25 04:00:00 7.6 5 Noroeste 12 Noroeste 0 -- -- 77
2020-03-25 03:00:00 9.1 3 Noroeste 15 Este 0 -- -- 63
2020-03-25 02:00:00 9.8 6 Este 19 Este 0 -- -- 55
2020-03-25 01:00:00 9.9 6 Este 25 Este 0 -- -- 55
2020-03-25 00:00:00 10 10 Este 19 Este 0 -- -- 58
2020-03-24 23:00:00 10.2 9 Este 18 Este 0 -- -- 60
2020-03-24 22:00:00 10.2 10 Este 23 Este 0 -- -- 56
2020-03-24 21:00:00 10.2 10 Este 22 Este 0 -- -- 59
2020-03-24 20:00:00 10.3 13 Este 26 Este 0 -- -- 63
2020-03-24 19:00:00 10.4 10 Este 26 Este 0 -- -- 65
2020-03-24 18:00:00 10.8 15 Este 31 Este 0 -- -- 62
2020-03-24 17:00:00 11.5 15 Este 33 Este 0 -- -- 64
2020-03-24 16:00:00 11.8 16 Este 31 Este 0 -- -- 64
2020-03-24 15:00:00 13.1 17 Este 32 Este 0 -- -- 62
2020-03-24 14:00:00 13.2 17 Este 29 Este 0 -- -- 64
2020-03-24 13:00:00 14.7 15 Este 29 Este 0 -- -- 60
2020-03-24 12:00:00 14.3 11 Este 23 Este 0 -- -- 58
2020-03-24 11:00:00 13.5 10 Este 21 Este 0 -- -- 61
2020-03-24 10:00:00 12.8 9 Este 21 Este 0 -- -- 65
2020-03-24 09:00:00 11.8 10 Este 20 Este 0 -- -- 69
2020-03-24 08:00:00 11.5 10 Este 20 Sudeste 0 -- -- 68
2020-03-24 07:00:00 11.3 11 Este 20 Este 0 -- -- 71
2020-03-24 06:00:00 11.4 11 Este 22 Este 0 -- -- 75
2020-03-24 05:00:00 10.8 4 Este 10 Sudeste 0 -- -- 83
2020-03-24 04:00:00 11 5 Nordeste 13 Nordeste 0 -- -- 83
2020-03-24 03:00:00 10.9 7 Este 15 Nordeste 0 -- -- 81
2020-03-24 02:00:00 11.7 8 Este 19 Este 0 -- -- 80
2020-03-24 01:00:00 11.9 7 Este 17 Este 0 -- -- 82
2020-03-24 00:00:00 11.6 7 Este 13 Este 0 -- -- 83
2020-03-23 23:00:00 12 8 Este 14 Este 0 -- -- 82
2020-03-23 22:00:00 12.2 5 Este 18 Este 0 -- -- 82
2020-03-23 21:00:00 12.5 7 Este 18 Sudeste 0 -- -- 83
2020-03-23 20:00:00 12.6 9 Este 24 Este 0 -- -- 79
2020-03-23 19:00:00 12.7 12 Este 30 Este 0 -- -- 81
2020-03-23 18:00:00 12.9 15 Este 33 Este 0 -- -- 79
2020-03-23 17:00:00 13.2 18 Este 34 Este 0 -- -- 79
2020-03-23 16:00:00 14 17 Este 32 Este 0 -- -- 78
2020-03-23 15:00:00 15.4 14 Este 29 Este 0 -- -- 78
2020-03-23 14:00:00 15.8 15 Este 27 Este 0 -- -- 75
2020-03-23 13:00:00 14.7 12 Este 27 Este 0 -- -- 80
2020-03-23 12:00:00 15 12 Este 22 Este 0 -- -- 89
2020-03-23 11:00:00 13.3 6 Sur 21 Sudeste 1.6 -- -- 94
2020-03-23 10:00:00 14.8 5 Este 9 Este 0 -- -- 88
2020-03-23 09:00:00 13.4 4 Norte 11 Noroeste 0 -- -- 99
2020-03-23 08:00:00 12.1 5 Noroeste 10 Noroeste 0 -- -- 100
2020-03-23 07:00:00 11.6 5 Noroeste 10 Norte 0 -- -- 100
2020-03-23 06:00:00 11.4 4 Noroeste 8 Noroeste 1.2 -- -- 100
2020-03-23 05:00:00 11.7 3 Noroeste 6 Noroeste 0.4 -- -- 100
2020-03-23 04:00:00 11.6 3 Noroeste 8 Noroeste 0 -- -- 99
2020-03-23 03:00:00 11.5 4 Noroeste 9 Noroeste 0 -- -- 98
2020-03-23 02:00:00 11.8 3 Noroeste 8 Oeste 0 -- -- 99
2020-03-23 01:00:00 12.3 3 Noroeste 9 Noroeste 0 -- -- 99
2020-03-23 00:00:00 12.8 0 Calma -- -- 0 -- -- 98
2020-03-22 23:00:00 13 0 Calma -- -- 0.4 -- -- 98
2020-03-22 22:00:00 13.1 0 Calma 4 Este 0.2 -- -- 95
2020-03-22 21:00:00 13.3 0 Calma 8 Sudeste 0 -- -- 91
2020-03-22 20:00:00 13.9 3 Sudeste 9 Sudeste 0 -- -- 88
2020-03-22 19:00:00 14.4 6 Sudeste 16 Sudeste 0 -- -- 85
2020-03-22 18:00:00 15.2 8 Este 19 Sudeste 0 -- -- 81
2020-03-22 17:00:00 16.6 8 Este 23 Sudeste 0 -- -- 76
2020-03-22 16:00:00 17.3 11 Este 24 Sudeste 0 -- -- 75
2020-03-22 15:00:00 17.4 13 Sudeste 26 Este 0 -- -- 75
2020-03-22 14:00:00 17.3 11 Este 24 Sudeste 0 -- -- 77
2020-03-22 13:00:00 17.6 12 Sudeste 23 Este 0 -- -- 75
2020-03-22 12:00:00 18.2 12 Sudeste 22 Sudeste 0 -- -- 73
2020-03-22 11:00:00 16.8 6 Sudeste 13 Este 0 -- -- 76
2020-03-22 10:00:00 16 6 Este 12 Sur 0 -- -- 83
2020-03-22 09:00:00 12 5 Norte 10 Noroeste 0 -- -- 98
2020-03-22 08:00:00 9.9 4 Oeste 8 Oeste 0 -- -- 98
2020-03-22 07:00:00 9.3 4 Noroeste 10 Nordeste 0 -- -- 98
2020-03-22 06:00:00 9.7 5 Noroeste 8 Noroeste 0 -- -- 97
2020-03-22 05:00:00 10.9 0 Calma 6 Sudoeste 0 -- -- 98
2020-03-22 04:00:00 11.5 4 Oeste 6 Noroeste 0 -- -- 98
2020-03-22 03:00:00 11.7 0 Calma 5 Oeste 0 -- -- 99
2020-03-22 02:00:00 11.8 0 Calma 3 Oeste 0 -- -- 99
2020-03-22 01:00:00 12.3 3 Oeste 4 Oeste 0 -- -- 98
2020-03-22 00:00:00 13.1 0 Calma 7 Sudeste 0 -- -- 98
2020-03-21 23:00:00 13.6 5 Sur 12 Sudeste 0 -- -- 98
2020-03-21 22:00:00 13.7 7 Sudeste 13 Sudeste 0 -- -- 97
2020-03-21 21:00:00 13.7 7 Sudeste 14 Sudeste 0 -- -- 97
2020-03-21 20:00:00 13.5 5 Este 18 Este 0 -- -- 96
2020-03-21 19:00:00 13.8 8 Este 19 Este 0 -- -- 94
2020-03-21 18:00:00 14.6 10 Este 22 Este 0 -- -- 87
2020-03-21 17:00:00 15.6 11 Este 24 Este 0 -- -- 83
2020-03-21 16:00:00 16.6 10 Este 22 Sudeste 0 -- -- 78
2020-03-21 15:00:00 17.5 9 Sudeste 24 Este 0 -- -- 70
2020-03-21 14:00:00 17 10 Este 22 Este 0 -- -- 65
2020-03-21 13:00:00 17.1 8 Sudeste 14 Sudeste 0 -- -- 70
2020-03-21 12:00:00 14.9 3 Norte 8 Oeste 0 -- -- 77
2020-03-21 11:00:00 12.5 5 Oeste 10 Oeste 0 -- -- 87
2020-03-21 10:00:00 8.5 5 Oeste 11 Oeste 0 -- -- 93
2020-03-21 09:00:00 6.7 5 Noroeste 11 Oeste 0 -- -- 98
2020-03-21 08:00:00 5.7 6 Oeste 12 Noroeste 0 -- -- 100
2020-03-21 07:00:00 4.7 6 Oeste 10 Oeste 0 -- -- 100
2020-03-21 06:00:00 4.8 4 Oeste 12 Noroeste 0 -- -- 99
2020-03-21 05:00:00 5.1 6 Oeste 13 Oeste 0 -- -- 100
2020-03-21 04:00:00 5.4 6 Oeste 12 Noroeste 0 -- -- 100
2020-03-21 03:00:00 5.5 6 Oeste 10 Noroeste 0 -- -- 100
2020-03-21 02:00:00 5.6 5 Oeste 8 Oeste 0 -- -- 98
2020-03-21 01:00:00 6.3 4 Oeste 10 Oeste 0 -- -- 97
2020-03-21 00:00:00 6.8 5 Oeste 9 Oeste 0 -- -- 95
2020-03-20 23:00:00 7.9 4 Oeste 6 Oeste 0 -- -- 95
2020-03-20 22:00:00 8.9 0 Calma 6 Noroeste 0 -- -- 92
2020-03-20 21:00:00 10.1 3 Noroeste 8 Sudeste 0 -- -- 86
2020-03-20 20:00:00 12 6 Sudeste 17 Sudeste 0 -- -- 86
2020-03-20 19:00:00 13.1 9 Sudeste 22 Sudeste 0 -- -- 82
2020-03-20 18:00:00 14.5 13 Sudeste 25 Sudeste 0 -- -- 76
2020-03-20 17:00:00 16.5 10 Sudeste 25 Sudeste 0 -- -- 75
2020-03-20 16:00:00 17.1 12 Sudeste 27 Este 0 -- -- 73
2020-03-20 15:00:00 17.1 12 Sudeste 26 Este 0 -- -- 72
2020-03-20 14:00:00 16.6 9 Este 18 Sudeste 0 -- -- 71
2020-03-20 13:00:00 17.1 7 Este 15 Este 0 -- -- 66
2020-03-20 12:00:00 16 3 Sur 8 Sudoeste 0 -- -- 67
2020-03-20 11:00:00 13.2 4 Nordeste 8 Norte 0 -- -- 87
2020-03-20 10:00:00 9.7 4 Noroeste 8 Oeste 0 -- -- 100
2020-03-20 09:00:00 7.1 0 Calma 6 Oeste 0 -- -- 100
2020-03-20 08:00:00 6.1 4 Oeste 9 Oeste 0 -- -- 100
2020-03-20 07:00:00 6.1 5 Oeste 11 Oeste 0.2 -- -- 100
2020-03-20 06:00:00 5.5 6 Noroeste 9 Noroeste 0 -- -- 100
2020-03-20 05:00:00 4.5 2 Oeste 9 Oeste 0 -- -- 100
2020-03-20 04:00:00 4.9 3 Noroeste 7 Norte 0 -- -- 100
2020-03-20 03:00:00 6.1 2 Noroeste 6 Norte 0 -- -- 100
2020-03-20 02:00:00 7.2 3 Oeste 7 Oeste 0 -- -- 100
2020-03-20 01:00:00 6.3 4 Sudoeste 7 Oeste 0 -- -- 100
2020-03-20 00:00:00 6.9 4 Oeste 7 Oeste 0 -- -- 99
2020-03-19 23:00:00 7.6 4 Oeste 6 Oeste 0 -- -- 97
2020-03-19 22:00:00 9 4 Noroeste 6 Noroeste 0 -- -- 97
2020-03-19 21:00:00 10 3 Noroeste 5 Norte 0 -- -- 95
2020-03-19 20:00:00 11.5 0 Calma 7 Sudeste 0 -- -- 91
2020-03-19 19:00:00 13.1 4 Sudeste 17 Sudeste 0 -- -- 87
2020-03-19 18:00:00 15 7 Sudeste 21 Sudeste 0 -- -- 81
2020-03-19 17:00:00 16.4 12 Sudeste 23 Este 0 -- -- 76
2020-03-19 16:00:00 16.5 12 Este 28 Este 0 -- -- 78
2020-03-19 15:00:00 16.9 12 Sudeste 26 Sudeste 0 -- -- 77
2020-03-19 14:00:00 16.4 14 Sudeste 26 Sudeste 0 -- -- 78
2020-03-19 13:00:00 16.5 13 Sudeste 23 Sudeste 0 -- -- 76
2020-03-19 12:00:00 16.4 8 Sudeste 16 Este 0 -- -- 74
2020-03-19 11:00:00 15.1 5 Este 11 Este 0 -- -- 76
2020-03-19 10:00:00 11.4 4 Norte 8 Norte 0 -- -- 92
2020-03-19 09:00:00 8.4 2 Oeste 6 Oeste 0 -- -- 100
2020-03-19 08:00:00 5.8 0 Calma 6 Sudoeste 0 -- -- 100
2020-03-19 07:00:00 4.6 3 Sudoeste 6 Oeste 0 -- -- 100
2020-03-19 06:00:00 5.1 4 Oeste 6 Oeste 0 -- -- 100
2020-03-19 05:00:00 5.5 4 Oeste 6 Oeste 0 -- -- 100
2020-03-19 04:00:00 5.9 4 Oeste 5 Oeste 0 -- -- 100
2020-03-19 03:00:00 6.6 4 Oeste 6 Oeste 0 -- -- 100
2020-03-19 02:00:00 7.1 5 Oeste 7 Noroeste 0 -- -- 100
2020-03-19 01:00:00 7.5 5 Oeste 6 Oeste 0 -- -- 100
2020-03-19 00:00:00 8.2 5 Noroeste 8 Noroeste 0 -- -- 100
2020-03-18 23:00:00 9.2 3 Oeste 6 Sudoeste 0 -- -- 98
2020-03-18 22:00:00 10.1 4 Sudoeste 5 Sudoeste 0 -- -- 97
2020-03-18 21:00:00 11.1 2 Noroeste 5 Noroeste 0 -- -- 96
2020-03-18 20:00:00 12.3 0 Calma 5 Este 0 -- -- 92
2020-03-18 19:00:00 13.7 4 Este 11 Sudeste 0 -- -- 90
2020-03-18 18:00:00 15.1 7 Sudeste 15 Sudeste 0 -- -- 85
2020-03-18 17:00:00 15.8 6 Este 13 Este 0 -- -- 82
2020-03-18 16:00:00 16.1 6 Este 13 Este 0 -- -- 77
2020-03-18 15:00:00 17.7 8 Sudeste 13 Este 0 -- -- 66
2020-03-18 14:00:00 17.9 8 Sudeste 15 Sudeste 0 -- -- 65
2020-03-18 13:00:00 17.5 6 Este 13 Sudeste 0 -- -- 67
2020-03-18 12:00:00 16.2 3 Este 9 Sudeste 0 -- -- 75
2020-03-18 11:00:00 14 2 Oeste 5 Oeste 0 -- -- 84
2020-03-18 10:00:00 12 3 Norte 6 Sudoeste 0 -- -- 94
2020-03-18 09:00:00 9.5 0 Calma 5 Sudoeste 0 -- -- 100
2020-03-18 08:00:00 7.9 0 Calma 3 Sudoeste 0 -- -- 100
2020-03-18 07:00:00 7.9 0 Calma 9 Oeste 0 -- -- 100
2020-03-18 06:00:00 8.2 4 Oeste 8 Oeste 0 -- -- 100
2020-03-18 05:00:00 8.3 4 Oeste 7 Oeste 0 -- -- 100
2020-03-18 04:00:00 8.5 4 Oeste 8 Oeste 0 -- -- 100
2020-03-18 03:00:00 8.7 4 Sudoeste 6 Sudoeste -- -- -- 100
2020-03-18 02:00:00 8.8 3 Oeste 5 Oeste 0 -- -- 100
2020-03-18 01:00:00 9.3 0 Calma 2 Sudoeste 0 -- -- 100
2020-03-18 00:00:00 9.7 0 Calma 6 Oeste 0 -- -- 99
2020-03-17 23:00:00 10.3 5 Noroeste 9 Noroeste 0 -- -- 99
2020-03-17 22:00:00 10.7 5 Oeste 6 Oeste 0 -- -- 98
2020-03-17 21:00:00 11.2 0 Calma -- -- 0 -- -- 96
2020-03-17 20:00:00 12.4 0 Calma -- -- 0 -- -- 94
2020-03-17 19:00:00 13.8 0 Calma 6 Sudeste 0 -- -- 89
2020-03-17 18:00:00 15.1 4 Sudeste 6 Sudeste 0 -- -- 86
2020-03-17 17:00:00 15.3 0 Calma 9 Nordeste 0 -- -- 80
2020-03-17 16:00:00 15.4 4 Nordeste 10 Nordeste 0 -- -- 78
2020-03-17 15:00:00 15.5 3 Nordeste 9 Este 0 -- -- 78
2020-03-17 14:00:00 15.4 5 Nordeste 13 Nordeste 0 -- -- 81
2020-03-17 13:00:00 15.4 8 Nordeste 16 Nordeste 0 -- -- 80
2020-03-17 12:00:00 15.1 8 Nordeste 15 Nordeste 0 -- -- 84
2020-03-17 11:00:00 14.2 6 Nordeste 10 Norte 0 -- -- 90
2020-03-17 10:00:00 12.7 0 Calma 9 Noroeste 0 -- -- 100
2020-03-17 09:00:00 11.8 5 Noroeste 10 Noroeste 0 -- -- 100
2020-03-17 08:00:00 11.5 5 Noroeste 8 Noroeste 0 -- -- 100
2020-03-17 07:00:00 11.5 4 Noroeste 7 Noroeste 0 -- -- 100
2020-03-17 06:00:00 11.4 0 Calma 6 Noroeste 0 -- -- 100
2020-03-17 05:00:00 11.3 3 Norte 9 Noroeste 0 -- -- 100
2020-03-17 04:00:00 11 7 Noroeste 12 Noroeste 0 -- -- 100
2020-03-17 03:00:00 10.9 7 Noroeste 12 Noroeste 0 -- -- 100
2020-03-17 02:00:00 11 6 Noroeste 14 Noroeste 0 -- -- 100
2020-03-17 01:00:00 11.3 7 Noroeste 12 Noroeste 0 -- -- 99
2020-03-17 00:00:00 11.8 5 Noroeste 10 Noroeste 0 -- -- 99
2020-03-16 23:00:00 12 3 Oeste 9 Noroeste 0 -- -- 98
2020-03-16 22:00:00 12.3 3 Noroeste 19 Nordeste 0.4 -- -- 97
2020-03-16 21:00:00 12.4 8 Nordeste 17 Nordeste 0.2 -- -- 97
2020-03-16 20:00:00 12.4 8 Nordeste 21 Nordeste 0.2 -- -- 95
2020-03-16 19:00:00 12.4 13 Nordeste 26 Este 0.2 -- -- 97
2020-03-16 18:00:00 12.4 14 Nordeste 25 Nordeste 1.4 -- -- 97
2020-03-16 17:00:00 12.5 17 Este 32 Este 1.8 -- -- 98
2020-03-16 16:00:00 12.6 18 Este 35 Este 1.2 -- -- 99
2020-03-16 15:00:00 13 16 Este 36 Este 1.4 -- -- 99
2020-03-16 14:00:00 13.4 14 Este 33 Este 0.8 -- -- 99
2020-03-16 13:00:00 13.7 18 Este 33 Este 0.8 -- -- 96
2020-03-16 12:00:00 14.7 12 Este 28 Este 0 -- -- 92
2020-03-16 11:00:00 14.4 10 Este 21 Este 0 -- -- 94
2020-03-16 10:00:00 14.2 6 Este 15 Este 0 -- -- 92
2020-03-16 09:00:00 13.8 6 Este 17 Sudeste 0 -- -- 93
2020-03-16 08:00:00 13.2 7 Sudeste 20 Este 0 -- -- 92
2020-03-16 07:00:00 13 9 Sudeste 22 Sudeste 0 -- -- 92
2020-03-16 06:00:00 12.9 9 Sudeste 18 Sudeste 0 -- -- 93
2020-03-16 05:00:00 12.8 9 Sudeste 18 Este 0 -- -- 94
2020-03-16 04:00:00 13 10 Sudeste 21 Sudeste 0 -- -- 92
2020-03-16 03:00:00 13 9 Sudeste 18 Sudeste 0 -- -- 88
2020-03-16 02:00:00 13.1 9 Sudeste 22 Sudeste 0 -- -- 83
2020-03-16 01:00:00 13.2 15 Sudeste 30 Sudeste 0 -- -- 85
2020-03-16 00:00:00 13.3 17 Sudeste 31 Sudeste 0 -- -- 89
2020-03-15 23:00:00 13.4 18 Sudeste 29 Sudeste 0 -- -- 90
2020-03-15 22:00:00 13.6 15 Sudeste 31 Sudeste 0 -- -- 89
2020-03-15 21:00:00 14 13 Sudeste 26 Sudeste 0 -- -- 81
2020-03-15 20:00:00 14 14 Sudeste 29 Sudeste 0 -- -- 84
2020-03-15 19:00:00 14.1 17 Sudeste 30 Sudeste 0 -- -- 89
2020-03-15 18:00:00 14.4 17 Sudeste 30 Sudeste 0 -- -- 89
2020-03-15 17:00:00 14.9 18 Sudeste 35 Este 0 -- -- 86
2020-03-15 16:00:00 15.9 22 Sudeste 41 Sudeste 0 -- -- 83
2020-03-15 15:00:00 16.3 22 Sudeste 40 Sudeste 0 -- -- 83
2020-03-15 14:00:00 16.5 24 Sudeste 45 Sudeste 0 -- -- 79
2020-03-15 13:00:00 16.2 24 Sudeste 46 Sudeste 0 -- -- 79
2020-03-15 12:00:00 17.2 24 Sudeste 40 Sudeste 0 -- -- 75
2020-03-15 11:00:00 15.9 19 Sudeste 36 Sudeste 0 -- -- 83
2020-03-15 10:00:00 15.2 8 Sudeste 15 Sudeste 0 -- -- 77
2020-03-15 09:00:00 12 0 Calma 6 Noroeste 0 -- -- 80
2020-03-15 08:00:00 10.4 3 Oeste 6 Oeste 0 -- -- 86
2020-03-15 07:00:00 10.4 0 Calma 5 Nordeste 0 -- -- 88
2020-03-15 06:00:00 10 3 Nordeste 8 Sur 0 -- -- 89
2020-03-15 05:00:00 9 3 Sur 9 Sudoeste 0 -- -- 85
2020-03-15 04:00:00 9.3 5 Oeste 8 Oeste 0 -- -- 81
2020-03-15 03:00:00 9.8 4 Oeste 8 Oeste 0 -- -- 82
2020-03-15 02:00:00 9.2 4 Oeste 10 Oeste 0 -- -- 82
2020-03-15 01:00:00 9.5 5 Oeste 9 Noroeste 0 -- -- 78
2020-03-15 00:00:00 11 5 Noroeste 9 Noroeste 0 -- -- 77
2020-03-14 23:00:00 13.2 0 Calma 3 Sudoeste 0 -- -- 85
2020-03-14 22:00:00 14 0 Calma 6 Sudeste 0 -- -- 82
2020-03-14 21:00:00 14.1 4 Sudeste 12 Sudeste 0 -- -- 83
2020-03-14 20:00:00 14.2 7 Sudeste 15 Sudeste 0 -- -- 83
2020-03-14 19:00:00 14.5 9 Sudeste 19 Sudeste 0 -- -- 81
2020-03-14 18:00:00 15.7 12 Sudeste 26 Sudeste 0 -- -- 75
2020-03-14 17:00:00 17.4 15 Sudeste 30 Sudeste 0 -- -- 69
2020-03-14 16:00:00 17.8 18 Sudeste 28 Sudeste 0 -- -- 62
2020-03-14 15:00:00 18.9 14 Sudeste 25 Sudeste 0 -- -- 54
2020-03-14 14:00:00 19.4 10 Sudeste 20 Sudeste 0 -- -- 57
2020-03-14 13:00:00 19 10 Sudeste 17 Sudeste 0 -- -- 56
2020-03-14 12:00:00 17.2 6 Norte 13 Norte 0 -- -- 54
2020-03-14 11:00:00 15.8 5 Oeste 11 Oeste 0 -- -- 57
2020-03-14 10:00:00 14.5 4 Noroeste 8 Oeste 0 -- -- 62
2020-03-14 09:00:00 11.6 5 Noroeste 9 Noroeste 0 -- -- 73
2020-03-14 08:00:00 9.3 6 Noroeste 10 Noroeste 0 -- -- 82
2020-03-14 07:00:00 9.1 4 Oeste 7 Oeste 0 -- -- 81
2020-03-14 06:00:00 10.8 4 Noroeste 8 Nordeste 0 -- -- 76
2020-03-14 05:00:00 11.1 4 Norte 7 Norte 0 -- -- 81
2020-03-14 04:00:00 11.3 4 Norte 7 Norte 0 -- -- 81
2020-03-14 03:00:00 10.6 0 Calma 9 Norte 0 -- -- 78
2020-03-14 02:00:00 11 5 Noroeste 8 Noroeste 0 -- -- 73
2020-03-14 01:00:00 12.1 6 Noroeste 14 Noroeste 0 -- -- 67
2020-03-14 00:00:00 13.3 7 Norte 13 Noroeste 0 -- -- 65
2020-03-13 23:00:00 14.3 6 Oeste 11 Noroeste 0 -- -- 64
2020-03-13 22:00:00 14.5 6 Noroeste 18 Noroeste 0 -- -- 62
2020-03-13 21:00:00 14.9 11 Noroeste 20 Noroeste 0 -- -- 59
2020-03-13 20:00:00 15.4 8 Noroeste 18 Noroeste 0 -- -- 57
2020-03-13 19:00:00 16.3 8 Noroeste 20 Noroeste 0 -- -- 52
2020-03-13 18:00:00 17.6 7 Noroeste 18 Norte 0 -- -- 55
2020-03-13 17:00:00 18.6 10 Noroeste 20 Noroeste 0 -- -- 53
2020-03-13 16:00:00 19.5 10 Noroeste 19 Noroeste 0 -- -- 52
2020-03-13 15:00:00 19.8 4 Sudeste 15 Este 0 -- -- 53
2020-03-13 14:00:00 20.1 7 Este 19 Norte 0 -- -- 57
2020-03-13 13:00:00 18.9 13 Noroeste 28 Noroeste 0 -- -- 53
2020-03-13 12:00:00 15.2 13 Noroeste 23 Noroeste 0 -- -- 65
2020-03-13 11:00:00 15.9 9 Noroeste 22 Oeste 0 -- -- 62
2020-03-13 10:00:00 15.5 9 Noroeste 16 Noroeste 0 -- -- 66
2020-03-13 09:00:00 13 6 Noroeste 12 Noroeste 0 -- -- 88
2020-03-13 08:00:00 10.5 3 Sudoeste 9 Sudoeste 0 -- -- 99
2020-03-13 07:00:00 10.2 4 Oeste 10 Oeste 0 -- -- 100
2020-03-13 06:00:00 10.7 4 Noroeste 13 Noroeste 0 -- -- 100
2020-03-13 05:00:00 9.6 4 Sur 9 Sudoeste 0 -- -- 100
2020-03-13 04:00:00 10.2 4 Oeste 8 Norte 0 -- -- 100
2020-03-13 03:00:00 10.8 0 Calma 7 Sudoeste 0 -- -- 100
2020-03-13 02:00:00 11.3 5 Sudeste 8 Sudeste 0 -- -- 100
2020-03-13 01:00:00 11.6 3 Sudeste 5 Sudeste 0 -- -- 100
2020-03-13 00:00:00 11.9 0 Calma 5 Sur 0 -- -- 100
2020-03-12 23:00:00 12.2 0 Calma 7 Sudoeste 0 -- -- 100
2020-03-12 22:00:00 12.3 5 Sur 14 Sur 0 -- -- 100
2020-03-12 21:00:00 12.2 7 Sur 17 Sur 0 -- -- 99
2020-03-12 20:00:00 12.5 11 Sudeste 21 Sudeste 0 -- -- 98
2020-03-12 19:00:00 13.4 12 Sudeste 19 Sudeste 0 -- -- 94
2020-03-12 18:00:00 15.1 7 Sudeste 13 Sudeste 0 -- -- 87
2020-03-12 17:00:00 16.6 9 Sudeste 16 Sudeste 0 -- -- 80
2020-03-12 16:00:00 16.7 11 Sudeste 22 Sudeste 0 -- -- 80
2020-03-12 15:00:00 16.5 10 Sudeste 28 Sudeste 0 -- -- 83
2020-03-12 14:00:00 17.7 17 Sudeste 28 Sudeste 0 -- -- 77
2020-03-12 13:00:00 19.6 5 Sur 15 Sudeste 0 -- -- 67
2020-03-12 12:00:00 18.5 9 Sudeste 15 Sudeste 0 -- -- 66
2020-03-12 11:00:00 17.4 9 Sudeste 15 Sudeste 0 -- -- 67
2020-03-12 10:00:00 13.9 4 Norte 8 Oeste 0 -- -- 83
2020-03-12 09:00:00 9.5 3 Oeste 4 Oeste 0 -- -- 100
2020-03-12 08:00:00 7 2 Oeste 5 Sudeste 0 -- -- 100
2020-03-12 07:00:00 6.8 4 Noroeste 7 Noroeste 0 -- -- 100
2020-03-12 06:00:00 6.7 0 Calma 3 Noroeste 0 -- -- 98
2020-03-12 05:00:00 7 3 Oeste 5 Oeste 0 -- -- 97
2020-03-12 04:00:00 7.8 3 Oeste 8 Oeste 0 -- -- 97
2020-03-12 03:00:00 8.2 4 Oeste 6 Noroeste 0 -- -- 95
2020-03-12 02:00:00 8.5 4 Oeste 7 Oeste 0 -- -- 94
2020-03-12 01:00:00 8.9 5 Noroeste 8 Noroeste 0 -- -- 92
2020-03-12 00:00:00 9.5 5 Oeste 8 Oeste 0 -- -- 91
2020-03-11 23:00:00 10 4 Noroeste 8 Oeste 0 -- -- 91
2020-03-11 22:00:00 10.8 5 Oeste 8 Noroeste 0 -- -- 90
2020-03-11 21:00:00 12 5 Oeste 6 Oeste 0 -- -- 87
2020-03-11 20:00:00 13.5 0 Calma 10 Este 0 -- -- 84
2020-03-11 19:00:00 14.8 6 Este 13 Este 0 -- -- 82
2020-03-11 18:00:00 18.6 5 Este 19 Sudeste 0 -- -- 64
2020-03-11 17:00:00 20.4 12 Sudeste 21 Sudeste 0 -- -- 48
2020-03-11 16:00:00 21 13 Sudeste 23 Sudeste 0 -- -- 50
2020-03-11 15:00:00 21 10 Sudeste 18 Sudeste 0 -- -- 53
2020-03-11 14:00:00 21.2 9 Sudeste 14 Sudeste 0 -- -- 53
2020-03-11 13:00:00 20 4 Este 10 Sudeste 0 -- -- 52
2020-03-11 12:00:00 18.5 4 Este 7 Sudeste 0 -- -- 58
2020-03-11 11:00:00 16 4 Sudeste 7 Sudeste 0 -- -- 67
2020-03-11 10:00:00 12.2 5 Norte 8 Noroeste 0 -- -- 83
2020-03-11 09:00:00 9 4 Noroeste 10 Sudoeste 0 -- -- 98
2020-03-11 08:00:00 5.3 5 Oeste 9 Sudoeste 0 -- -- 100
2020-03-11 07:00:00 5.1 6 Sudoeste 10 Sudoeste 0 -- -- 100
2020-03-11 06:00:00 5.3 4 Sudoeste 7 Oeste 0 -- -- 100
2020-03-11 05:00:00 5.5 4 Oeste 8 Sudoeste 0 -- -- 98
2020-03-11 04:00:00 6.3 3 Oeste 6 Sudoeste 0 -- -- 97
2020-03-11 03:00:00 7.2 2 Nordeste 7 Este 0 -- -- 97
2020-03-11 02:00:00 8.2 3 Sur 13 Sudoeste 0 -- -- 97
2020-03-11 01:00:00 7.5 6 Sudoeste 8 Sudoeste 0 -- -- 97
2020-03-11 00:00:00 7.9 3 Sudoeste 5 Sudoeste 0 -- -- 95
2020-03-10 23:00:00 8.3 4 Norte 9 Sudoeste 0 -- -- 95
2020-03-10 22:00:00 9 6 Sudoeste 10 Sudoeste 0 -- -- 91
2020-03-10 21:00:00 10.1 0 Calma 7 Noroeste 0 -- -- 87
2020-03-10 20:00:00 11 4 Noroeste 6 Noroeste 0 -- -- 86
2020-03-10 19:00:00 12.8 0 Calma 6 Este 0 -- -- 79
2020-03-10 18:00:00 14.1 4 Este 13 Este 0 -- -- 75
2020-03-10 17:00:00 14.7 7 Sudeste 21 Sudeste 0 -- -- 72
2020-03-10 16:00:00 15.8 10 Este 24 Sudeste 0 -- -- 69
2020-03-10 15:00:00 16.6 9 Este 22 Sudeste 0 -- -- 65
2020-03-10 14:00:00 16 11 Este 21 Sudeste 0 -- -- 64
2020-03-10 13:00:00 14.9 8 Este 18 Este 0 -- -- 66
2020-03-10 12:00:00 15.8 8 Este 19 Este 0 -- -- 59
2020-03-10 11:00:00 13.9 6 Sudeste 11 Sudeste 0 -- -- 65
2020-03-10 10:00:00 11.2 0 Calma 9 Sur 0 -- -- 72
2020-03-10 09:00:00 10.2 4 Sudeste 14 Oeste 0 -- -- 75
2020-03-10 08:00:00 9.7 8 Sudoeste 20 Sudoeste 0 -- -- 73
2020-03-10 07:00:00 11.1 5 Oeste 22 Norte 0 -- -- 64
2020-03-10 06:00:00 11.5 9 Noroeste 21 Noroeste 0 -- -- 60
2020-03-10 05:00:00 12 12 Noroeste 44 Norte 0 -- -- 57
2020-03-10 04:00:00 12.2 12 Norte 41 Norte 0 -- -- 52
2020-03-10 03:00:00 12.1 20 Noroeste 42 Noroeste 0 -- -- 52
2020-03-10 02:00:00 12.1 22 Noroeste 45 Noroeste 0 -- -- 53
2020-03-10 01:00:00 11.8 17 Noroeste 38 Norte 0 -- -- 53
2020-03-10 00:00:00 11.6 19 Noroeste 49 Norte 0 -- -- 57
2020-03-09 23:00:00 11.8 33 Norte 64 Norte 0 -- -- 55
2020-03-09 22:00:00 12.1 37 Noroeste 81 Norte 0 -- -- 54
2020-03-09 21:00:00 12 37 Noroeste 84 Noroeste 0 -- -- 54
2020-03-09 20:00:00 12 42 Norte 82 Norte 0 -- -- 59
2020-03-09 19:00:00 12.5 44 Norte 68 Norte 0 -- -- 56
2020-03-09 18:00:00 13.7 37 Noroeste 75 Noroeste 0 -- -- 49
2020-03-09 17:00:00 14.2 51 Norte 78 Norte 0 -- -- 52
2020-03-09 16:00:00 14.6 51 Norte 75 Norte 0 -- -- 51
2020-03-09 15:00:00 15.2 40 Noroeste 73 Noroeste 0 -- -- 44
2020-03-09 14:00:00 15.1 41 Noroeste 80 Norte 0 -- -- 44
2020-03-09 13:00:00 14.7 45 Noroeste 77 Noroeste 0 -- -- 49
2020-03-09 12:00:00 13.7 44 Noroeste 73 Norte 0 -- -- 54
2020-03-09 11:00:00 15.1 24 Noroeste 47 Noroeste 0 -- -- 49
2020-03-09 10:00:00 14.2 23 Noroeste 54 Noroeste 0 -- -- 47
2020-03-09 09:00:00 12.7 32 Noroeste 62 Norte 0 -- -- 53
2020-03-09 08:00:00 11.4 35 Norte 60 Norte 0 -- -- 59
2020-03-09 07:00:00 10.8 21 Noroeste 52 Noroeste 0 -- -- 64
2020-03-09 06:00:00 11.9 30 Noroeste 50 Noroeste 0 -- -- 62
2020-03-09 05:00:00 9.1 2 Oeste 10 Noroeste 0 -- -- 96
2020-03-09 04:00:00 9.2 5 Noroeste 15 Oeste 0 -- -- 97
2020-03-09 03:00:00 7.3 4 Oeste 8 Sur 0 -- -- 100
2020-03-09 02:00:00 7.2 4 Oeste 8 Nordeste 0 -- -- 99
2020-03-09 01:00:00 8 3 Sudoeste 6 Sudoeste 0 -- -- 96
2020-03-09 00:00:00 9.2 5 Sudoeste 9 Sudeste 0 -- -- 95
2020-03-08 23:00:00 9.9 4 Oeste 8 Oeste 0 -- -- 94
2020-03-08 22:00:00 10.8 3 Oeste 5 Sudoeste 0 -- -- 90
2020-03-08 21:00:00 11.4 0 Calma 5 Sur 0 -- -- 88
2020-03-08 20:00:00 12.7 3 Sudeste 5 Sudoeste 0 -- -- 85
2020-03-08 19:00:00 13.7 2 Este 11 Sudeste 0 -- -- 80
2020-03-08 18:00:00 14.7 7 Sur 21 Sudeste 0 -- -- 75
2020-03-08 17:00:00 15.4 11 Sudeste 21 Sudeste 0 -- -- 77
2020-03-08 16:00:00 15.8 10 Sudeste 22 Este 0 -- -- 73
2020-03-08 15:00:00 16.2 10 Este 24 Este 0 -- -- 72
2020-03-08 14:00:00 16 11 Este 24 Este 0 -- -- 61
2020-03-08 13:00:00 16.8 10 Sudeste 19 Sudeste 0 -- -- 53
2020-03-08 12:00:00 16.3 7 Sudeste 13 Sudeste 0 -- -- 53
2020-03-08 11:00:00 13.2 4 Sur 11 Sudoeste 0 -- -- 59
2020-03-08 10:00:00 9.7 0 Calma 10 Oeste 0 -- -- 74
2020-03-08 09:00:00 5.3 5 Oeste 10 Oeste 0 -- -- 89
2020-03-08 08:00:00 2.9 3 Sudoeste 7 Oeste 0 -- -- 95
2020-03-08 07:00:00 3 3 Sudoeste 8 Noroeste 0 -- -- 91
2020-03-08 06:00:00 3.7 4 Sudoeste 9 Sur 0 -- -- 89
2020-03-08 05:00:00 4.5 3 Noroeste 10 Sudoeste 0 -- -- 85
2020-03-08 04:00:00 5.5 5 Sudoeste 15 Sudoeste 0 -- -- 81
2020-03-08 03:00:00 6.9 6 Sudoeste 17 Sudoeste 0 -- -- 75
2020-03-08 02:00:00 8.6 10 Oeste 26 Noroeste 0 -- -- 68
2020-03-08 01:00:00 11 13 Noroeste 33 Sudoeste 0 -- -- 63
2020-03-08 00:00:00 11.2 10 Noroeste 22 Noroeste 0 -- -- 62
2020-03-07 23:00:00 10.8 3 Oeste 13 Noroeste 0 -- -- 62
2020-03-07 22:00:00 11.9 8 Noroeste 33 Norte 0 -- -- 58
2020-03-07 21:00:00 12.3 21 Noroeste 35 Noroeste 0 -- -- 54
2020-03-07 20:00:00 12 12 Noroeste 29 Noroeste 0 -- -- 53
2020-03-07 19:00:00 12.9 16 Noroeste 36 Norte 0 -- -- 48
2020-03-07 18:00:00 14 23 Norte 53 Norte 0 -- -- 44
2020-03-07 17:00:00 14.5 27 Noroeste 64 Noroeste 0 -- -- 43
2020-03-07 16:00:00 14.7 32 Noroeste 77 Norte 0 -- -- 44
2020-03-07 15:00:00 14.1 44 Noroeste 77 Norte 0 -- -- 45
2020-03-07 14:00:00 14.2 38 Noroeste 80 Noroeste 0 -- -- 50
2020-03-07 13:00:00 13.6 44 Noroeste 72 Noroeste 0 -- -- 42
2020-03-07 12:00:00 12.6 35 Noroeste 80 Norte 0 -- -- 49
2020-03-07 11:00:00 11.6 45 Noroeste 83 Noroeste 0 -- -- 50
2020-03-07 10:00:00 10.5 39 Noroeste 79 Noroeste 0 -- -- 54
2020-03-07 09:00:00 9.7 40 Noroeste 75 Noroeste 0 -- -- 57
2020-03-07 08:00:00 8.8 28 Noroeste 59 Noroeste 0 -- -- 58
2020-03-07 07:00:00 8.8 30 Noroeste 56 Noroeste 0 -- -- 61
2020-03-07 06:00:00 9.3 30 Noroeste 59 Noroeste 0 -- -- 58
2020-03-07 05:00:00 9.5 26 Noroeste 55 Norte 0 -- -- 55
2020-03-07 04:00:00 9.2 27 Noroeste 45 Noroeste 0 -- -- 58
2020-03-07 03:00:00 9.3 12 Noroeste 62 Noroeste 0 -- -- 60
2020-03-07 02:00:00 9.4 38 Noroeste 78 Noroeste 0 -- -- 60
2020-03-07 01:00:00 9.4 33 Noroeste 71 Noroeste 0 -- -- 60
2020-03-07 00:00:00 9.5 18 Noroeste 48 Oeste 0 -- -- 58
2020-03-06 23:00:00 10.2 30 Noroeste 61 Noroeste 0 -- -- 54
2020-03-06 22:00:00 10.7 26 Noroeste 51 Noroeste 0 -- -- 47
2020-03-06 21:00:00 10 24 Norte 55 Noroeste 0 -- -- 49
2020-03-06 20:00:00 10.4 24 Noroeste 40 Noroeste 0 -- -- 48
2020-03-06 19:00:00 11.6 3 Oeste 18 Oeste 0 -- -- 70
2020-03-06 18:00:00 13.5 8 Sudoeste 30 Noroeste 0 -- -- 62
2020-03-06 17:00:00 13.3 6 Este 16 Sudeste 0 -- -- 56
2020-03-06 16:00:00 13.6 9 Sudeste 21 Sudeste 0 -- -- 60
2020-03-06 15:00:00 13.6 13 Sudeste 23 Sudeste 0 -- -- 62
2020-03-06 14:00:00 14.4 11 Nordeste 23 Este 0 -- -- 63
2020-03-06 13:00:00 12.7 13 Nordeste 25 Sudeste 0 -- -- 65
2020-03-06 12:00:00 14.2 7 Este 16 Este 0 -- -- 67
2020-03-06 11:00:00 13.6 7 Este 12 Nordeste 0 -- -- 68
2020-03-06 10:00:00 11.1 5 Sur 10 Sudoeste 0 -- -- 81
2020-03-06 09:00:00 8.3 6 Noroeste 10 Noroeste 0 -- -- 92
2020-03-06 08:00:00 6.7 4 Sudoeste 12 Oeste 0 -- -- 91
2020-03-06 07:00:00 6.7 7 Oeste 12 Sudoeste 0 -- -- 90
2020-03-06 06:00:00 5.7 7 Oeste 14 Oeste 0 -- -- 89
2020-03-06 05:00:00 5.6 8 Oeste 12 Oeste 0 -- -- 86
2020-03-06 04:00:00 5.9 5 Oeste 8 Oeste 0 -- -- 89
2020-03-06 03:00:00 6.6 4 Oeste 10 Noroeste 0 -- -- 90
2020-03-06 02:00:00 6.8 7 Oeste 12 Noroeste 0 -- -- 90
2020-03-06 01:00:00 7.3 3 Oeste 12 Noroeste 0 -- -- 94
2020-03-06 00:00:00 7.7 5 Noroeste 10 Noroeste 0 -- -- 99
2020-03-05 23:00:00 7.6 3 Nordeste 10 Sudoeste 0 -- -- 99
2020-03-05 22:00:00 8.4 4 Sudoeste 8 Oeste 0 -- -- 98
2020-03-05 21:00:00 9.3 2 Noroeste 6 Sudoeste 0.2 -- -- 95
2020-03-05 20:00:00 11 5 Este 15 Noroeste 1.4 -- -- 92
2020-03-05 19:00:00 12.5 9 Noroeste 42 Noroeste 0 -- -- 78
2020-03-05 18:00:00 14.6 16 Norte 27 Norte 0 -- -- 59
2020-03-05 17:00:00 13 13 Norte 35 Norte 0 -- -- 73
2020-03-05 16:00:00 16.2 6 Norte 23 Nordeste 0 -- -- 73
2020-03-05 15:00:00 16.6 6 Noroeste 15 Nordeste 0 -- -- 77
2020-03-05 14:00:00 17.2 5 Norte 16 Norte 0 -- -- 77
2020-03-05 13:00:00 16.8 9 Norte 17 Norte 0 -- -- 75
2020-03-05 12:00:00 15.4 9 Noroeste 19 Norte 0 -- -- 76
2020-03-05 11:00:00 13.3 6 Norte 12 Norte 0 -- -- 87
2020-03-05 10:00:00 10.5 4 Norte 9 Norte 0 -- -- 100
2020-03-05 09:00:00 8.8 0 Calma 11 Sur 0 -- -- 100
2020-03-05 08:00:00 7.7 3 Oeste 6 Oeste 0 -- -- 100
2020-03-05 07:00:00 7.5 3 Norte 7 Oeste 0 -- -- 100
2020-03-05 06:00:00 7.4 3 Oeste 9 Noroeste 0 -- -- 100
2020-03-05 05:00:00 7.5 4 Noroeste 6 Noroeste 0 -- -- 100
2020-03-05 04:00:00 7.7 3 Oeste 5 Oeste 0 -- -- 99
2020-03-05 03:00:00 7.8 2 Noroeste 5 Noroeste 0 -- -- 99
2020-03-05 02:00:00 8.2 0 Calma 9 Norte 0 -- -- 96
2020-03-05 01:00:00 8.8 4 Sudoeste 8 Sudoeste 0 -- -- 95
2020-03-05 00:00:00 9.7 3 Sudoeste 8 Sudoeste 0 -- -- 93
2020-03-04 23:00:00 10.1 5 Oeste 9 Sudoeste 0 -- -- 91
2020-03-04 22:00:00 10.5 3 Oeste 6 Oeste 0 -- -- 91
2020-03-04 21:00:00 10.7 5 Noroeste 10 Noroeste 0 -- -- 92
2020-03-04 20:00:00 11.3 3 Oeste 6 Sudoeste 0 -- -- 87
2020-03-04 19:00:00 12.6 4 Sur 13 Sur 0 -- -- 83
2020-03-04 18:00:00 13.1 5 Sudeste 14 Sudeste 0 -- -- 79
2020-03-04 17:00:00 13.5 10 Sur 25 Sudeste 0 -- -- 76
2020-03-04 16:00:00 12.4 9 Este 17 Este 0 -- -- 81
2020-03-04 15:00:00 12.6 7 Este 17 Sudeste 0 -- -- 77
2020-03-04 14:00:00 12.6 5 Este 10 Este 0 -- -- 71
2020-03-04 13:00:00 12.9 4 Sudeste 8 Sudeste 0 -- -- 70
2020-03-04 12:00:00 13 4 Sur 8 Sudeste 0 -- -- 64
2020-03-04 11:00:00 11.7 2 Nordeste 9 Sudoeste 0 -- -- 67
2020-03-04 10:00:00 10.7 5 Noroeste 13 Oeste 0 -- -- 71
2020-03-04 09:00:00 7.4 3 Sudoeste 10 Sudoeste 0 -- -- 85
2020-03-04 08:00:00 5.2 7 Sudoeste 10 Sudoeste 0 -- -- 87
2020-03-04 07:00:00 6.5 3 Noroeste 12 Noroeste 0 -- -- 79
2020-03-04 06:00:00 8.3 9 Noroeste 14 Noroeste 0 -- -- 71
2020-03-04 05:00:00 9.2 8 Norte 35 Noroeste 0 -- -- 69
2020-03-04 04:00:00 9.4 14 Oeste 27 Sudoeste 0 -- -- 70
2020-03-04 03:00:00 9.9 5 Sudeste 54 Norte 0 -- -- 66
2020-03-04 02:00:00 10.3 39 Norte 69 Norte 0 -- -- 65
2020-03-04 01:00:00 10 37 Norte 66 Norte 0 -- -- 67
2020-03-04 00:00:00 10.2 41 Norte 62 Noroeste 0 -- -- 69
2020-03-03 23:00:00 10.3 29 Noroeste 65 Norte 0 -- -- 71
2020-03-03 22:00:00 10.7 32 Noroeste 57 Noroeste 0.2 -- -- 72
2020-03-03 21:00:00 9.1 15 Noroeste 40 Norte 0 -- -- 93
2020-03-03 20:00:00 8.4 11 Noroeste 24 Norte 1.6 -- -- 96
2020-03-03 19:00:00 9 3 Este 14 Norte 0 -- -- 89
2020-03-03 18:00:00 9.8 6 Nordeste 17 Norte 0.4 -- -- 86
2020-03-03 17:00:00 10.9 4 Nordeste 18 Noroeste 0 -- -- 69
2020-03-03 16:00:00 10.8 14 Norte 21 Nordeste 0 -- -- 73
2020-03-03 15:00:00 13.3 11 Nordeste 20 Nordeste 0 -- -- 58
2020-03-03 14:00:00 12.2 6 Sudoeste 15 Sudeste 0 -- -- 55
2020-03-03 13:00:00 11.9 9 Sur 16 Sur 0 -- -- 58
2020-03-03 12:00:00 10.8 6 Sur 14 Sur 0 -- -- 56
2020-03-03 11:00:00 10.3 6 Sudoeste 15 Sur 0 -- -- 60
2020-03-03 10:00:00 8.3 9 Sudoeste 17 Sudoeste 0 -- -- 68
2020-03-03 09:00:00 5.4 5 Oeste 11 Oeste 0 -- -- 79
2020-03-03 08:00:00 4 7 Oeste 13 Oeste 0 -- -- 79
2020-03-03 07:00:00 5.2 5 Oeste 12 Noroeste 0 -- -- 71
2020-03-03 06:00:00 7.7 6 Oeste 29 Noroeste 0 -- -- 63
2020-03-03 05:00:00 8.9 19 Noroeste 38 Noroeste 0 -- -- 57
2020-03-03 04:00:00 9.6 28 Noroeste 48 Noroeste 0 -- -- 51
2020-03-03 03:00:00 9.4 24 Noroeste 44 Noroeste 0 -- -- 52
2020-03-03 02:00:00 9.6 22 Noroeste 51 Noroeste 0 -- -- 53
2020-03-03 01:00:00 9.5 25 Noroeste 46 Noroeste 0 -- -- 53
2020-03-03 00:00:00 9.9 27 Noroeste 47 Noroeste 0 -- -- 50
2020-03-02 23:00:00 9.7 25 Noroeste 48 Norte 0 -- -- 50
2020-03-02 22:00:00 9.7 33 Noroeste 58 Norte 0 -- -- 54
2020-03-02 21:00:00 9.8 18 Noroeste 56 Noroeste 0 -- -- 56
2020-03-02 20:00:00 10 29 Noroeste 53 Noroeste 0 -- -- 57
2020-03-02 19:00:00 11.3 34 Noroeste 57 Noroeste 0 -- -- 49
2020-03-02 18:00:00 12.5 25 Noroeste 55 Noroeste 0 -- -- 47
2020-03-02 17:00:00 14.1 24 Noroeste 45 Noroeste 0 -- -- 41
2020-03-02 16:00:00 12.1 8 Noroeste 58 Norte 0 -- -- 58
2020-03-02 15:00:00 13.5 7 Sur 17 Sur 0 -- -- 79
2020-03-02 14:00:00 11.9 8 Sudoeste 18 Sudoeste 0 -- -- 83
2020-03-02 13:00:00 11 4 Sudeste 22 Noroeste 3.6 -- -- 86
2020-03-02 12:00:00 13.8 10 Noroeste 31 Nordeste 1.8 -- -- 67
2020-03-02 11:00:00 16.1 10 Nordeste 24 Norte 0 -- -- 59
2020-03-02 10:00:00 16.5 17 Norte 28 Norte 0 -- -- 57
2020-03-02 09:00:00 16.3 10 Noroeste 38 Sudoeste 0 -- -- 69
2020-03-02 08:00:00 15.4 13 Sur 32 Sur 0 -- -- 74
2020-03-02 07:00:00 14.5 13 Sur 30 Sur 0 -- -- 78
2020-03-02 06:00:00 12.6 15 Sur 25 Sur 0 -- -- 86
2020-03-02 05:00:00 8.9 0 Calma 6 Sudeste 0 -- -- 97
2020-03-02 04:00:00 8.7 2 Sudeste 9 Oeste 0 -- -- 96
2020-03-02 03:00:00 8.6 3 Sudoeste 7 Noroeste 0 -- -- 94
2020-03-02 02:00:00 8.9 5 Noroeste 8 Noroeste 0 -- -- 93
2020-03-02 01:00:00 9.5 5 Noroeste 9 Noroeste 0 -- -- 91
2020-03-02 00:00:00 10 4 Noroeste 13 Noroeste 0 -- -- 91
2020-03-01 23:00:00 9.9 3 Noroeste 9 Noroeste 0 -- -- 91
2020-03-01 22:00:00 10.3 3 Sudoeste 9 Sudoeste 0 -- -- 89
2020-03-01 21:00:00 11.1 4 Norte 13 Noroeste 0 -- -- 82
2020-03-01 20:00:00 12.5 5 Nordeste 17 Sudeste 0 -- -- 78
2020-03-01 19:00:00 14 3 Este 19 Nordeste 0 -- -- 73
2020-03-01 18:00:00 15.8 12 Nordeste 24 Nordeste 0 -- -- 67
2020-03-01 17:00:00 19.2 6 Nordeste 14 Este 0 -- -- 59
2020-03-01 16:00:00 19 5 Este 15 Sudeste 0 -- -- 62
2020-03-01 15:00:00 17.7 8 Este 24 Nordeste 0 -- -- 67
2020-03-01 14:00:00 16 14 Este 31 Este 0 -- -- 75
2020-03-01 13:00:00 15.4 16 Este 30 Este 0 -- -- 73
2020-03-01 12:00:00 16.2 13 Este 28 Sudeste 0 -- -- 67
2020-03-01 11:00:00 15.8 15 Sudeste 27 Sudeste 0 -- -- 67
2020-03-01 10:00:00 14.2 11 Sur 21 Sudeste 0 -- -- 73
2020-03-01 09:00:00 11.5 3 Oeste 7 Sudoeste 0 -- -- 76
2020-03-01 08:00:00 11 2 Sudoeste 9 Sudoeste 0 -- -- 80
2020-03-01 07:00:00 11.1 2 Sur 5 Sur 0 -- -- 80
2020-03-01 06:00:00 11.2 3 Sudoeste 7 Sudeste 0 -- -- 78
2020-03-01 05:00:00 11.3 5 Sur 10 Sur 0 -- -- 77
2020-03-01 04:00:00 11.5 4 Sur 7 Sur 0 -- -- 78
2020-03-01 03:00:00 11.6 3 Sur 8 Sudoeste 0 -- -- 78
2020-03-01 02:00:00 11.6 2 Sudoeste 5 Sudoeste 0 -- -- 77
2020-03-01 01:00:00 12 2 Sur 5 Sur 0 -- -- 74
2020-03-01 00:00:00 12.6 0 Calma 6 Oeste 0 -- -- 77
2020-02-29 23:00:00 13.3 6 Oeste 13 Oeste 0 -- -- 77
2020-02-29 22:00:00 14.1 5 Noroeste 23 Norte 0 -- -- 75
2020-02-29 21:00:00 14.9 12 Norte 24 Norte 0 -- -- 77
2020-02-29 20:00:00 15.2 8 Norte 15 Norte 0 -- -- 77
2020-02-29 19:00:00 15.5 8 Nordeste 19 Nordeste 0 -- -- 74
2020-02-29 18:00:00 16.7 14 Nordeste 24 Este 0 -- -- 68
2020-02-29 17:00:00 19.4 12 Este 25 Sudoeste 0 -- -- 58
2020-02-29 16:00:00 21.9 12 Sudoeste 30 Sudoeste 0 -- -- 42
2020-02-29 15:00:00 21.3 6 Sur 30 Sudoeste 0 -- -- 53
2020-02-29 14:00:00 20.5 14 Sudoeste 34 Sudoeste 0 -- -- 53
2020-02-29 13:00:00 20.6 13 Sur 35 Oeste 0 -- -- 52
2020-02-29 12:00:00 18.6 14 Sur 42 Sudoeste 0 -- -- 61
2020-02-29 11:00:00 16.6 14 Sur 33 Sudoeste 0 -- -- 68
2020-02-29 10:00:00 14.6 10 Sudoeste 45 Sudoeste 0 -- -- 74
2020-02-29 09:00:00 13.4 21 Sur 46 Sudoeste 0 -- -- 77
2020-02-29 08:00:00 12.6 17 Sur 35 Sur 0 -- -- 80
2020-02-29 07:00:00 12.2 16 Sur 34 Sur 0 -- -- 84
2020-02-29 06:00:00 12 12 Sur 30 Sur 0 -- -- 86
2020-02-29 05:00:00 11.9 14 Sur 27 Sur 0 -- -- 87
2020-02-29 04:00:00 11.9 14 Sur 30 Sur 0 -- -- 87
2020-02-29 03:00:00 11.3 10 Sur 22 Sudoeste 0 -- -- 90
2020-02-29 02:00:00 11.3 10 Sur 28 Sur 0 -- -- 93
2020-02-29 01:00:00 11.1 15 Sur 28 Sur 0 -- -- 94
2020-02-29 00:00:00 10.6 12 Sur 22 Sur 0 -- -- 95
2020-02-28 23:00:00 10.6 2 Sur 12 Sur 0 -- -- 93
2020-02-28 22:00:00 11.1 8 Sudeste 12 Sudeste 0 -- -- 92
2020-02-28 21:00:00 11.7 3 Sudeste 10 Sudeste 0 -- -- 90
2020-02-28 20:00:00 12.1 3 Sudeste 10 Sur 0 -- -- 87
2020-02-28 19:00:00 13.2 6 Sudeste 16 Sudeste 0 -- -- 84
2020-02-28 18:00:00 14.1 8 Sudeste 18 Sudeste 0 -- -- 79
2020-02-28 17:00:00 14.1 9 Este 27 Este 0 -- -- 79
2020-02-28 16:00:00 13.9 11 Sudeste 25 Sudeste 0 -- -- 75
2020-02-28 15:00:00 14.6 14 Sudeste 26 Sudeste 0 -- -- 72
2020-02-28 14:00:00 15.6 10 Este 26 Sudeste 0 -- -- 70
2020-02-28 13:00:00 17.1 10 Sudeste 17 Sudeste 0 -- -- 62
2020-02-28 12:00:00 16.2 5 Sudeste 16 Sudeste 0 -- -- 66
2020-02-28 11:00:00 15.1 10 Este 20 Este 0 -- -- 68
2020-02-28 10:00:00 13.8 4 Noroeste 13 Noroeste 0 -- -- 69
2020-02-28 09:00:00 11.5 6 Noroeste 13 Sudoeste 0 -- -- 80
2020-02-28 08:00:00 9.1 6 Noroeste 11 Noroeste 0 -- -- 86
2020-02-28 07:00:00 10.1 8 Norte 21 Noroeste 0 -- -- 80
2020-02-28 06:00:00 11.4 19 Norte 36 Norte 0 -- -- 75
2020-02-28 05:00:00 12.6 19 Noroeste 37 Noroeste 0 -- -- 70
2020-02-28 04:00:00 12.8 21 Norte 36 Norte 0 -- -- 70
2020-02-28 03:00:00 12.1 19 Norte 33 Norte 0 -- -- 73
2020-02-28 02:00:00 9.7 6 Noroeste 14 Noroeste 0 -- -- 84
2020-02-28 01:00:00 11.8 13 Norte 24 Noroeste 0 -- -- 80
2020-02-28 00:00:00 10.1 0 Calma 8 Oeste 0 -- -- 86